createdAt,value
2019-03-24T00:00:08.888Z,67.67
2019-03-24T00:02:42.164Z,67.31
2019-03-24T00:05:14.946Z,68.17
2019-03-24T00:07:47.758Z,68.23
2019-03-24T00:10:20.567Z,68.77
2019-03-24T00:12:53.409Z,68.40
2019-03-24T00:15:26.804Z,69.15
2019-03-24T00:17:59.805Z,69.72
2019-03-24T00:20:32.573Z,69.47
2019-03-24T00:23:05.578Z,70.63
2019-03-24T00:25:38.341Z,71.70
2019-03-24T00:28:11.455Z,71.04
2019-03-24T00:30:44.260Z,70.92
2019-03-24T00:33:17.041Z,72.12
2019-03-24T00:35:49.837Z,71.96
2019-03-24T00:38:22.717Z,71.92
2019-03-24T00:40:55.562Z,72.17
2019-03-24T00:43:28.315Z,72.19
2019-03-24T00:46:01.516Z,72.02
2019-03-24T00:48:34.389Z,72.35
2019-03-24T00:51:07.529Z,72.41
2019-03-24T00:53:40.360Z,72.46
2019-03-24T00:56:13.125Z,73.06
2019-03-24T00:58:45.991Z,73.29
2019-03-24T01:01:19.349Z,73.43
2019-03-24T01:03:52.145Z,74.64
2019-03-24T01:06:25.021Z,74.69
2019-03-24T01:08:57.803Z,75.99
2019-03-24T01:11:31.127Z,75.71
2019-03-24T01:14:03.917Z,77.33
2019-03-24T01:16:36.748Z,77.76
2019-03-24T01:19:09.741Z,77.62
2019-03-24T01:21:42.621Z,77.44
2019-03-24T01:24:15.533Z,77.56
2019-03-24T01:26:48.307Z,77.99
2019-03-24T01:29:21.473Z,77.79
2019-03-24T01:31:54.251Z,77.94
2019-03-24T01:34:27.123Z,77.26
2019-03-24T01:37:00.013Z,77.45
2019-03-24T01:39:32.819Z,78.09
2019-03-24T01:42:07.629Z,78.02
2019-03-24T01:44:41.245Z,77.64
2019-03-24T01:47:14.050Z,77.43
2019-03-24T01:49:46.822Z,77.44
2019-03-24T01:52:19.611Z,77.50
2019-03-24T01:54:52.427Z,77.91
2019-03-24T01:57:25.205Z,77.64
2019-03-24T01:59:57.995Z,77.59
2019-03-24T02:02:31.005Z,77.67
2019-03-24T02:05:04.005Z,77.74
2019-03-24T02:07:36.793Z,76.95
2019-03-24T02:10:10.435Z,76.63
2019-03-24T02:12:43.264Z,76.17
2019-03-24T02:15:16.293Z,76.13
2019-03-24T02:17:49.294Z,75.36
2019-03-24T02:20:22.061Z,74.90
2019-03-24T02:22:54.857Z,74.72
2019-03-24T02:25:27.677Z,74.73
2019-03-24T02:28:00.711Z,74.50
2019-03-24T02:30:33.480Z,74.54
2019-03-24T02:33:06.234Z,74.94
2019-03-24T02:35:39.004Z,75.21
2019-03-24T02:38:11.925Z,75.30
2019-03-24T02:40:44.686Z,74.99
2019-03-24T02:43:17.417Z,75.48
2019-03-24T02:45:50.147Z,75.59
2019-03-24T02:48:22.940Z,75.93
2019-03-24T02:50:55.827Z,75.81
2019-03-24T02:53:28.820Z,76.24
2019-03-24T02:56:01.623Z,75.85
2019-03-24T02:58:34.523Z,76.02
2019-03-24T03:01:08.483Z,75.45
2019-03-24T03:03:41.223Z,75.45
2019-03-24T03:06:14.009Z,75.61
2019-03-24T03:08:46.747Z,75.74
2019-03-24T03:11:19.458Z,75.99
2019-03-24T03:13:52.212Z,76.33
2019-03-24T03:16:37.908Z,76.35
2019-03-24T03:18:59.406Z,76.29
2019-03-24T03:21:32.271Z,76.56
2019-03-24T03:24:05.024Z,76.54
2019-03-24T03:26:37.809Z,76.74
2019-03-24T03:29:10.540Z,77.01
2019-03-24T03:31:43.348Z,77.81
2019-03-24T03:34:16.161Z,77.50
2019-03-24T03:36:49.082Z,78.11
2019-03-24T03:39:22.053Z,78.49
2019-03-24T03:41:54.797Z,78.96
2019-03-24T03:44:27.535Z,78.90
2019-03-24T03:47:00.319Z,78.77
2019-03-24T03:49:33.151Z,79.17
2019-03-24T03:52:05.909Z,79.40
2019-03-24T03:54:38.691Z,79.67
2019-03-24T03:57:11.544Z,79.69
2019-03-24T03:59:44.324Z,79.84
2019-03-24T04:02:17.128Z,80.28
2019-03-24T04:04:49.851Z,80.36
2019-03-24T04:07:22.634Z,80.52
2019-03-24T04:09:55.396Z,80.31
2019-03-24T04:12:29.454Z,80.61
2019-03-24T04:15:02.210Z,80.69
2019-03-24T04:17:34.940Z,80.78
2019-03-24T04:20:08.079Z,80.57
2019-03-24T04:22:40.823Z,80.19
2019-03-24T04:25:13.603Z,80.09
2019-03-24T04:27:46.349Z,79.21
2019-03-24T04:30:19.199Z,79.18
2019-03-24T04:32:52.033Z,79.70
2019-03-24T04:35:24.909Z,79.54
2019-03-24T04:37:57.656Z,79.30
2019-03-24T04:40:31.220Z,79.37
2019-03-24T04:43:03.993Z,79.20
2019-03-24T04:45:36.744Z,78.97
2019-03-24T04:48:09.513Z,79.00
2019-03-24T04:50:42.343Z,78.90
2019-03-24T04:53:15.121Z,78.54
2019-03-24T04:55:47.903Z,78.07
2019-03-24T04:58:20.686Z,77.74
2019-03-24T05:00:53.417Z,77.29
2019-03-24T05:03:26.369Z,76.79
2019-03-24T05:05:59.392Z,76.56
2019-03-24T05:08:32.145Z,76.16
2019-03-24T05:11:04.951Z,75.77
2019-03-24T05:13:37.684Z,75.06
2019-03-24T05:16:10.998Z,74.64
2019-03-24T05:18:43.750Z,74.20
2019-03-24T05:21:16.542Z,73.95
2019-03-24T05:23:49.327Z,73.79
2019-03-24T05:26:22.050Z,73.34
2019-03-24T05:28:54.851Z,72.87
2019-03-24T05:31:27.607Z,72.56
2019-03-24T05:34:00.708Z,72.25
2019-03-24T05:36:33.477Z,71.99
2019-03-24T05:39:07.771Z,71.58
2019-03-24T05:41:40.974Z,71.22
2019-03-24T05:44:13.733Z,71.29
2019-03-24T05:46:46.486Z,70.83
2019-03-24T05:49:19.258Z,70.14
2019-03-24T05:51:52.046Z,69.07
2019-03-24T05:54:24.798Z,68.78
2019-03-24T05:56:57.541Z,68.04
2019-03-24T05:59:30.329Z,66.69
2019-03-24T06:02:03.203Z,66.75
2019-03-24T06:04:35.947Z,65.70
2019-03-24T06:07:08.827Z,65.56
2019-03-24T06:09:41.937Z,64.06
2019-03-24T06:12:14.709Z,63.24
2019-03-24T06:14:47.499Z,62.50
2019-03-24T06:17:20.261Z,61.90
2019-03-24T06:19:53.095Z,61.74
2019-03-24T06:22:25.875Z,61.57
2019-03-24T06:24:58.813Z,61.93
2019-03-24T06:27:31.578Z,62.07
2019-03-24T06:30:07.788Z,61.46
2019-03-24T06:32:40.548Z,60.70
2019-03-24T06:35:13.378Z,60.71
2019-03-24T06:37:46.183Z,60.66
2019-03-24T06:40:19.866Z,60.52
2019-03-24T06:42:52.822Z,58.89
2019-03-24T06:45:28.584Z,58.64
2019-03-24T06:48:00.054Z,58.26
2019-03-24T06:50:32.783Z,57.77
2019-03-24T06:53:05.522Z,57.11
2019-03-24T06:55:38.320Z,55.57
2019-03-24T06:58:11.129Z,54.91
2019-03-24T07:00:43.875Z,53.37
2019-03-24T07:03:16.668Z,52.60
2019-03-24T07:05:49.544Z,49.66
2019-03-24T07:08:22.321Z,42.55
2019-03-24T07:10:55.101Z,35.54
2019-03-24T07:13:28.031Z,32.61
2019-03-24T07:16:01.309Z,29.92
2019-03-24T07:18:34.118Z,31.06
2019-03-24T07:21:06.880Z,31.64
2019-03-24T07:23:39.714Z,31.51
2019-03-24T07:26:12.518Z,29.57
2019-03-24T07:28:45.346Z,26.69
2019-03-24T07:31:18.099Z,25.89
2019-03-24T07:33:51.311Z,24.05
2019-03-24T07:36:24.077Z,22.85
2019-03-24T07:38:56.865Z,21.26
2019-03-24T07:41:29.656Z,22.54
2019-03-24T07:44:02.423Z,23.26
2019-03-24T07:46:35.271Z,23.96
2019-03-24T07:49:08.078Z,24.64
2019-03-24T07:51:41.142Z,23.86
2019-03-24T07:54:14.011Z,21.75
2019-03-24T07:56:46.838Z,18.42
2019-03-24T07:59:19.645Z,17.53
2019-03-24T08:01:52.433Z,16.76
2019-03-24T08:04:25.273Z,16.59
2019-03-24T08:06:58.063Z,18.10
2019-03-24T08:09:30.849Z,15.35
2019-03-24T08:12:04.023Z,14.12
2019-03-24T08:14:36.797Z,13.53
2019-03-24T08:17:09.585Z,11.69
2019-03-24T08:19:42.421Z,11.83
2019-03-24T08:22:15.206Z,10.80
2019-03-24T08:24:47.964Z,10.88
2019-03-24T08:27:26.888Z,10.32
2019-03-24T08:29:59.660Z,9.94
2019-03-24T08:32:32.489Z,8.84
2019-03-24T08:35:06.456Z,8.65
2019-03-24T08:37:39.312Z,9.67
2019-03-24T08:40:12.149Z,9.36
2019-03-24T08:42:44.948Z,9.66
2019-03-24T08:45:27.795Z,8.99
2019-03-24T08:48:01.143Z,8.07
2019-03-24T08:50:33.936Z,7.89
2019-03-24T08:53:06.730Z,7.56
2019-03-24T08:55:39.513Z,7.21
2019-03-24T08:58:12.300Z,11.65
2019-03-24T09:00:45.076Z,11.03
2019-03-24T09:03:17.805Z,8.84
2019-03-24T09:05:51.068Z,7.76
2019-03-24T09:08:23.836Z,6.73
2019-03-24T09:10:56.626Z,6.32
2019-03-24T09:13:29.451Z,5.94
2019-03-24T09:16:02.319Z,5.26
2019-03-24T09:18:35.042Z,5.09
2019-03-24T09:21:07.919Z,5.35
2019-03-24T09:23:41.048Z,5.60
2019-03-24T09:26:13.849Z,5.67
2019-03-24T09:28:46.631Z,5.14
2019-03-24T09:31:19.388Z,4.79
2019-03-24T09:33:52.229Z,4.38
2019-03-24T09:36:25.170Z,3.52
2019-03-24T09:38:57.956Z,3.46
2019-03-24T09:41:30.723Z,3.59
2019-03-24T09:44:03.538Z,3.89
2019-03-24T09:46:36.393Z,3.89
2019-03-24T09:49:09.158Z,3.63
2019-03-24T09:51:41.954Z,3.54
2019-03-24T09:54:14.825Z,3.44
2019-03-24T09:56:47.593Z,3.55
2019-03-24T09:59:20.439Z,3.33
2019-03-24T10:01:53.164Z,2.96
2019-03-24T10:04:25.979Z,3.05
2019-03-24T10:06:58.761Z,3.10
2019-03-24T10:09:31.874Z,3.10
2019-03-24T10:12:04.733Z,3.11
2019-03-24T10:14:37.497Z,3.26
2019-03-24T10:17:10.279Z,3.01
2019-03-24T10:19:43.091Z,3.15
2019-03-24T10:22:15.824Z,2.99
2019-03-24T10:24:48.578Z,2.93
2019-03-24T10:27:21.631Z,4.03
2019-03-24T10:29:54.419Z,5.56
2019-03-24T10:32:27.197Z,5.11
2019-03-24T10:35:00.325Z,4.35
2019-03-24T10:37:33.112Z,3.79
2019-03-24T10:40:06.350Z,3.34
2019-03-24T10:42:39.797Z,3.27
2019-03-24T10:45:13.399Z,3.01
2019-03-24T10:47:46.174Z,3.35
2019-03-24T10:50:19.138Z,3.18
2019-03-24T10:52:52.099Z,3.19
2019-03-24T10:55:24.866Z,2.79
2019-03-24T10:57:57.700Z,3.12
2019-03-24T11:00:44.658Z,3.14
2019-03-24T11:03:17.507Z,2.67
2019-03-24T11:05:50.274Z,2.97
2019-03-24T11:08:23.061Z,2.86
2019-03-24T11:10:55.924Z,3.57
2019-03-24T11:13:28.762Z,4.70
2019-03-24T11:16:01.879Z,4.02
2019-03-24T11:18:34.674Z,4.03
2019-03-24T11:21:08.880Z,4.30
2019-03-24T11:32:51.954Z,16.62
2019-03-24T11:35:27.623Z,13.35
2019-03-24T11:38:01.040Z,11.18
2019-03-24T11:40:33.877Z,9.65
2019-03-24T11:43:07.829Z,9.22
2019-03-24T11:45:41.024Z,8.14
2019-03-24T11:48:13.861Z,8.54
2019-03-24T11:50:46.794Z,7.13
2019-03-24T11:53:19.718Z,6.76
2019-03-24T11:55:52.622Z,7.73
2019-03-24T11:58:25.420Z,10.49
2019-03-24T12:00:58.342Z,11.75
2019-03-24T12:03:31.101Z,12.63
2019-03-24T12:06:13.911Z,11.62
2019-03-24T12:08:38.920Z,11.79
2019-03-24T12:11:12.221Z,12.25
2019-03-24T12:13:45.050Z,13.05
2019-03-24T12:16:17.880Z,14.00
2019-03-24T12:18:50.710Z,14.60
2019-03-24T12:21:23.706Z,15.61
2019-03-24T12:23:56.489Z,16.98
2019-03-24T12:26:29.371Z,16.90
2019-03-24T12:29:02.320Z,18.37
2019-03-24T12:31:35.234Z,17.53
2019-03-24T12:34:08.105Z,17.84
2019-03-24T12:36:41.356Z,18.29
2019-03-24T12:39:14.208Z,18.67
2019-03-24T12:41:47.071Z,18.82
2019-03-24T12:44:20.081Z,18.96
2019-03-24T12:46:52.991Z,19.21
2019-03-24T12:49:25.825Z,19.20
2019-03-24T12:51:58.666Z,19.55
2019-03-24T12:54:32.690Z,19.86
2019-03-24T12:57:05.459Z,20.33
2019-03-24T12:59:38.313Z,20.61
2019-03-24T13:02:11.538Z,20.55
2019-03-24T13:04:44.485Z,20.40
2019-03-24T13:07:17.288Z,20.41
2019-03-24T13:09:50.136Z,20.71
2019-03-24T13:12:23.136Z,20.87
2019-03-24T13:14:55.942Z,21.18
2019-03-24T13:17:28.832Z,21.60
2019-03-24T13:20:01.911Z,21.83
2019-03-24T13:22:35.455Z,21.93
2019-03-24T13:25:08.810Z,22.05
2019-03-24T13:27:41.669Z,22.29
2019-03-24T13:30:14.701Z,22.46
2019-03-24T13:32:48.583Z,22.57
2019-03-24T13:35:40.271Z,22.40
2019-03-24T13:38:12.398Z,22.32
2019-03-24T13:40:45.226Z,22.40
2019-03-24T13:43:18.001Z,22.45
2019-03-24T13:45:51.326Z,22.64
2019-03-24T13:48:24.169Z,22.89
2019-03-24T13:50:57.022Z,23.21
2019-03-24T13:53:29.866Z,23.13
2019-03-24T13:56:02.744Z,23.10
2019-03-24T13:58:37.904Z,23.07
2019-03-24T14:01:11.077Z,23.32
2019-03-24T14:03:43.932Z,23.47
2019-03-24T14:06:16.819Z,23.59
2019-03-24T14:08:49.787Z,23.78
2019-03-24T14:11:24.257Z,23.89
2019-03-24T14:13:57.195Z,23.91
2019-03-24T14:16:31.175Z,23.73
2019-03-24T14:19:06.350Z,23.52
2019-03-24T14:21:39.381Z,23.38
2019-03-24T14:24:12.404Z,23.32
2019-03-24T14:26:45.451Z,23.15
2019-03-24T14:29:18.265Z,23.00
2019-03-24T14:31:51.156Z,22.98
2019-03-24T14:34:26.841Z,23.11
2019-03-24T14:37:00.875Z,23.37
2019-03-24T14:39:33.776Z,23.36
2019-03-24T14:42:06.905Z,23.64
2019-03-24T14:44:39.794Z,23.61
2019-03-24T14:47:12.726Z,23.87
2019-03-24T14:49:45.659Z,24.19
2019-03-24T14:52:18.662Z,24.30
2019-03-24T14:54:51.427Z,24.50
2019-03-24T14:57:24.391Z,24.79
2019-03-24T14:59:57.370Z,24.96
2019-03-24T15:02:30.988Z,25.22
2019-03-24T15:05:03.833Z,25.54
2019-03-24T15:07:36.684Z,25.91
2019-03-24T15:10:09.706Z,26.28
2019-03-24T15:12:42.631Z,26.46
2019-03-24T15:15:15.508Z,26.67
2019-03-24T15:17:48.342Z,26.80
2019-03-24T15:20:21.389Z,26.96
2019-03-24T15:22:54.271Z,27.15
2019-03-24T15:25:27.165Z,27.19
2019-03-24T15:28:00.036Z,27.29
2019-03-24T15:30:32.931Z,27.57
2019-03-24T15:33:05.765Z,27.83
2019-03-24T15:35:38.674Z,27.86
2019-03-24T15:38:11.888Z,28.37
2019-03-24T15:40:45.031Z,28.51
2019-03-24T15:43:17.965Z,28.55
2019-03-24T15:45:51.231Z,28.82
2019-03-24T15:48:24.050Z,28.99
2019-03-24T15:50:56.839Z,28.99
2019-03-24T15:53:29.680Z,29.23
2019-03-24T15:56:02.551Z,29.35
2019-03-24T15:58:35.569Z,29.49
2019-03-24T16:01:08.347Z,29.71
2019-03-24T16:03:41.700Z,29.92
2019-03-24T16:06:14.476Z,30.21
2019-03-24T16:08:47.241Z,30.32
2019-03-24T16:11:20.178Z,30.71
2019-03-24T16:13:52.968Z,30.95
2019-03-24T16:16:25.788Z,31.09
2019-03-24T16:18:58.709Z,31.23
2019-03-24T16:21:31.609Z,31.37
2019-03-24T16:24:04.408Z,31.50
2019-03-24T16:26:37.256Z,31.90
2019-03-24T16:29:10.047Z,31.94
2019-03-24T16:31:42.944Z,31.99
2019-03-24T16:34:15.759Z,32.28
2019-03-24T16:36:48.663Z,32.36
2019-03-24T16:39:21.903Z,32.56
2019-03-24T16:41:54.764Z,32.83
2019-03-24T16:44:27.695Z,32.98
2019-03-24T16:47:00.777Z,33.26
2019-03-24T16:49:33.603Z,33.54
2019-03-24T16:52:06.504Z,33.84
2019-03-24T16:54:39.485Z,33.92
2019-03-24T16:57:12.416Z,34.18
2019-03-24T16:59:45.347Z,34.31
2019-03-24T17:02:18.470Z,34.39
2019-03-24T17:04:51.261Z,34.83
2019-03-24T17:07:24.097Z,34.93
2019-03-24T17:09:58.793Z,35.32
2019-03-24T17:12:31.635Z,35.69
2019-03-24T17:15:04.833Z,36.33
2019-03-24T17:17:38.403Z,37.16
2019-03-24T17:20:12.495Z,37.42
2019-03-24T17:22:45.344Z,37.78
2019-03-24T17:25:18.432Z,38.15
2019-03-24T17:27:51.242Z,38.48
2019-03-24T17:30:24.112Z,38.41
2019-03-24T17:32:56.971Z,39.13
2019-03-24T17:35:29.923Z,39.84
2019-03-24T17:38:02.766Z,39.58
2019-03-24T17:40:39.105Z,39.64
2019-03-24T17:43:11.180Z,39.87
2019-03-24T17:45:44.130Z,39.86
2019-03-24T17:48:16.964Z,39.79
2019-03-24T17:50:49.927Z,40.00
2019-03-24T17:53:22.730Z,40.49
2019-03-24T17:55:57.421Z,42.01
2019-03-24T17:58:32.939Z,42.98
2019-03-24T18:01:06.069Z,42.96
2019-03-24T18:03:38.867Z,43.03
2019-03-24T18:06:12.293Z,42.84
2019-03-24T18:08:45.193Z,42.95
2019-03-24T18:11:18.035Z,42.95
2019-03-24T18:13:51.027Z,43.43
2019-03-24T18:16:23.933Z,43.53
2019-03-24T18:18:56.772Z,43.77
2019-03-24T18:21:29.777Z,44.03
2019-03-24T18:24:02.755Z,44.29
2019-03-24T18:26:35.903Z,44.52
2019-03-24T18:29:08.731Z,44.66
2019-03-24T18:31:41.993Z,44.89
2019-03-24T18:34:14.859Z,45.40
2019-03-24T18:36:47.669Z,45.66
2019-03-24T18:39:20.571Z,45.57
2019-03-24T18:41:53.467Z,46.03
2019-03-24T18:44:26.351Z,46.44
2019-03-24T18:46:59.256Z,46.44
2019-03-24T18:49:32.129Z,47.47
2019-03-24T18:52:04.930Z,47.97
2019-03-24T18:54:37.918Z,47.96
2019-03-24T18:57:11.098Z,47.84
2019-03-24T18:59:44.070Z,48.66
2019-03-24T19:02:16.962Z,48.58
2019-03-24T19:04:49.880Z,48.65
2019-03-24T19:07:22.688Z,48.40
2019-03-24T19:09:55.485Z,48.32
2019-03-24T19:12:28.319Z,48.00
2019-03-24T19:15:01.134Z,47.83
2019-03-24T19:17:34.111Z,47.19
2019-03-24T19:20:08.196Z,47.16
2019-03-24T19:22:41.026Z,47.09
2019-03-24T19:25:14.131Z,46.60
2019-03-24T19:27:47.073Z,45.99
2019-03-24T19:30:22.750Z,46.19
2019-03-24T19:32:55.688Z,46.03
2019-03-24T19:35:28.515Z,45.25
2019-03-24T19:38:02.684Z,44.70
2019-03-24T19:40:35.698Z,44.00
2019-03-24T19:43:08.686Z,43.53
2019-03-24T19:45:41.533Z,43.42
2019-03-24T19:48:14.433Z,42.93
2019-03-24T19:50:47.218Z,42.47
2019-03-24T19:53:20.064Z,41.78
2019-03-24T19:55:52.977Z,41.37
2019-03-24T19:58:25.942Z,41.12
2019-03-24T20:00:58.788Z,40.97
2019-03-24T20:03:31.868Z,40.79
2019-03-24T20:06:04.837Z,40.60
2019-03-24T20:08:37.666Z,40.77
2019-03-24T20:11:10.507Z,41.25
2019-03-24T20:13:43.907Z,42.09
2019-03-24T20:16:17.863Z,42.97
2019-03-24T20:18:50.729Z,43.63
2019-03-24T20:21:23.595Z,44.07
2019-03-24T20:23:56.399Z,43.62
2019-03-24T20:26:29.274Z,43.02
2019-03-24T20:29:04.342Z,42.56
2019-03-24T20:31:37.149Z,42.93
2019-03-24T20:34:10.176Z,42.74
2019-03-24T20:36:43.263Z,43.02
2019-03-24T20:39:16.281Z,43.58
2019-03-24T20:41:49.101Z,43.58
2019-03-24T20:44:22.161Z,42.86
2019-03-24T20:46:54.977Z,42.14
2019-03-24T20:49:27.857Z,42.05
2019-03-24T20:52:01.073Z,42.05
2019-03-24T20:54:33.912Z,41.73
2019-03-24T20:57:06.741Z,42.11
2019-03-24T20:59:39.646Z,42.74
2019-03-24T21:02:12.512Z,42.58
2019-03-24T21:04:45.275Z,41.95
2019-03-24T21:07:18.136Z,41.60
2019-03-24T21:09:50.964Z,41.82
2019-03-24T21:12:23.718Z,41.89
2019-03-24T21:14:56.560Z,41.56
2019-03-24T21:17:29.328Z,41.05
2019-03-24T21:20:02.259Z,41.17
2019-03-24T21:22:35.205Z,41.09
2019-03-24T21:25:09.029Z,40.86
2019-03-24T21:27:42.014Z,40.58
2019-03-24T21:30:15.281Z,40.64
2019-03-24T21:32:48.191Z,40.78
2019-03-24T21:35:21.364Z,41.34
2019-03-24T21:37:54.235Z,41.42
2019-03-24T21:40:27.089Z,40.79
2019-03-24T21:42:59.987Z,40.54
2019-03-24T21:45:32.855Z,40.29
2019-03-24T21:48:06.377Z,40.06
2019-03-24T21:50:39.398Z,40.19
2019-03-24T21:53:12.229Z,40.52
2019-03-24T21:55:45.286Z,40.83
2019-03-24T21:58:18.100Z,41.07
2019-03-24T22:00:51.450Z,41.30
2019-03-24T22:03:24.244Z,42.63
2019-03-24T22:05:57.103Z,43.70
2019-03-24T22:08:30.014Z,44.60
2019-03-24T22:11:02.848Z,45.56
2019-03-24T22:13:35.679Z,46.93
2019-03-24T22:16:08.490Z,47.91
2019-03-24T22:18:41.565Z,48.58
2019-03-24T22:21:14.377Z,49.05
2019-03-24T22:23:52.086Z,49.23
2019-03-24T22:26:22.171Z,48.98
2019-03-24T22:28:55.180Z,49.91
2019-03-24T22:31:28.105Z,50.47
2019-03-24T22:34:01.502Z,51.37
2019-03-24T22:36:34.315Z,51.65
2019-03-24T22:39:09.050Z,51.95
2019-03-24T22:41:43.846Z,53.09
2019-03-24T22:44:16.375Z,53.36
2019-03-24T22:46:49.158Z,54.30
2019-03-24T22:49:21.983Z,54.91
2019-03-24T22:52:06.481Z,55.56
2019-03-24T22:54:29.399Z,55.76
2019-03-24T22:57:03.408Z,55.70
2019-03-24T22:59:36.228Z,56.34
2019-03-24T23:02:09.197Z,56.44
2019-03-24T23:04:42.157Z,56.95
2019-03-24T23:07:14.956Z,56.90
2019-03-24T23:09:47.815Z,56.83
2019-03-24T23:12:21.006Z,57.57
2019-03-24T23:14:53.875Z,57.88
2019-03-24T23:17:26.783Z,57.77
2019-03-24T23:19:59.560Z,57.91
2019-03-24T23:22:32.446Z,58.11
2019-03-24T23:25:05.247Z,58.14
2019-03-24T23:27:38.071Z,58.07
2019-03-24T23:30:12.506Z,57.93
2019-03-24T23:32:45.326Z,57.93
2019-03-24T23:35:18.108Z,58.05
2019-03-24T23:37:51.027Z,58.31
2019-03-24T23:40:26.730Z,58.45
2019-03-24T23:42:59.808Z,58.25
2019-03-24T23:45:33.883Z,58.25
2019-03-24T23:48:07.444Z,58.13
2019-03-24T23:50:40.201Z,58.45
2019-03-24T23:53:13.072Z,58.47
2019-03-24T23:55:45.858Z,58.58
2019-03-24T23:58:18.708Z,58.87
